Warning: Javascript must be enabled to use all the features on this page!


Page Loading - Please Wait...

Click to hideNews Bulletins

Peak Streamflow for Idaho

Click to hide state-specific text

USGS 13056500 HENRYS FORK NR REXBURG ID

Madison County, Idaho
Hydrologic Unit Code 17040203
Latitude  43°49'33", Longitude 111°54'18" NAD83
Drainage area 2,920  square miles
Contributing drainage area 2,920  square miles
Gage datum 4,806.35 feet above NGVD29
Output formats
Table
Graph
Tab-separated file
peakfq (watstore) format
Reselect output format
Water
Year
Date Gage
Height
(feet)
Stream-
flow
(cfs)
1909 1909-06-06 8.703 7,6801,5
1910 1910-04-30 8.403 6,8101,5
1911 1911-06-17 8.403 6,6501,5
1912 1912-06-11 9.303 7,2001,5
1913 1913-05-29 9.50 6,7201,5
1914 1914-06-06 9.82 7,0505
1915 1915-06-04 8.90 6,2001,5
1916 1916-05-08 9.25 6,4905
1917 1917-05-31 10.01 8,7505
1918 1918-06-25 9.96 7,5605
1919 1919-04-30 8.28 5,9305
1920 1920-05-19 8.66 6,3505
1921 1921-06-02 10.12 8,3005
1922 1922-05-22 9.03 6,4705
1923 1923-05-28 7.77 5,0005
1924 1923-10-19 4.06 1,7105
1925 1925-05-23 9.80 8,9801,5
1926 1926-04-23 7.77 4,9505
1927 1927-06-29 9.90 9,4901,5
1928 1928-05-14 9.60 7,7001,5
1929 1929-06-19 8.95 6,2305
1930 1930-04-15 5.70 3,0305
1931 1931-05-17 5.00 2,2805
1932 1932-06-18 9.35 7,0601,5
1933 1933-06-16 7.65 4,9801,5
1934 1933-11-21 4.22 1,7905
1935 1935-06-03 6.42 3,6201,5
1936 1936-05-17 8.63 5,7005
1937 1937-06-14 6.97 4,0405
1938 1938-05-03 9.08 6,2206
1939 1939-05-02 8.15 5,0606
1940 1940-06-09 7.38 4,3506
1941 1941-05-29 6.56 3,5406
1942 1942-06-11 7.80 4,5806
1943 1943-06-03 9.29 7,0406
1944 1944-06-12 8.32 5,4306
1945 1945-06-11 9.58 7,9106
1946 1946-04-28 9.41 7,1306
1947 1947-06-11 8.99 6,3706
1948 1948-05-23 9.22 6,7406
1949 1949-05-24 9.79 7,6506
1950 1950-06-09 9.14 6,5706
1951 1951-05-14 8.33 5,2106
1952 1952-05-06 9.49 7,8206
1953 1953-06-09 8.80 5,8806
1954 1954-05-23 8.14 5,1006
1955 1955-06-05 7.19 4,0006
1956 1956-05-30 8.88 5,9306
1957 1957-05-22 9.63 8,6806
1958 1958-05-27 8.29 5,2106
1959 1959-06-28 7.28 4,0706
1960 1960-04-11 7.30 4,1506
1961 1961-05-31 5.51 2,4706
1962 1962-02-13 10.021 7,1006
1963 1963-06-16 8.521 5,4306
1964 1964-06-20 10.18 11,0006
1965 1965-06-28 9.52 8,6106
1966 1966-05-12 7.19 3,8106
1967 1967-05-31 9.13 7,1306
1968 1968-06-14 9.70 8,8406
1969 1969-04-25 8.93 6,7606
1970 1970-05-29 10.30 11,2006
1971 1971-05-14 10.02 9,9006
1972 1972-06-11 9.38 7,7706
1973 1973-05-21 9.00 6,5606
1974 1974-06-07 9.80 10,1006
1975 1975-06-05 10.22 11,2006
1976 1976-06-05   79,0006
1977 1976-10-04 5.93 2,7606
1978 1978-05-17 9.77 9,5206
1979 1979-05-19 8.23 5,2606
1980 1980-06-04 8.92 7,7706
1981 1981-06-11 10.23 9,0406
1982 1982-05-29 10.12 11,4006
1983 1983-06-13 10.50 11,5006
1984 1984-05-17 12.055 16,4006
1985 1985-05-05 9.95 8,3406
1986 1986-06-04 9.96 8,9406
1987 1987-05-30 8.36 6,3206
1988 1988-04-23 7.07 3,9906
1989 1989-05-12   9,2906
1990 1990-04-19 7.16 4,2406
1991 1991-05-20 9.86 8,2206
1992 1992-06-18 6.55 3,4606
1993 1993-05-17 10.40 10,6006
1994 1994-04-27 7.74 4,5606
1995 1995-05-19 10.30 10,3006
1996 1996-05-18 11.26 13,8006
1997 1997-06-12 11.21 13,6006
1998 1998-06-28 10.25 10,1006
1999 1999-06-01   13,5006
2000 2000-05-28 8.76 6,0306
2001 2001-05-17 6.59 3,4706
2002 2002-06-04 9.03 6,5706
2003 2003-05-31   4,2506
2004 2004-06-12   5,2006
2005 2005-05-23   7,1706
2006 2006-05-24 10.10 8,8006
2007 2007-05-04 6.89 3,8106
2008 2008-05-22 10.43 10,8006
2009 2009-06-23 9.74 7,7906
2010 2010-06-09 11.30 13,6006
2011 2011-06-09 11.87 15,7006
2012 2012-04-28 9.28 7,8606
2013 2013-05-20 7.44 4,2606
2014 2014-05-30 8.38 6,0206
2015 2015-05-18 7.25 4,2106
2016 2016-05-23 7.48 4,3006
2017 2017-06-15 9.59 7,5305
2018 2018-05-26 10.15 9,0505
2019 2019-05-19 9.66 7,7005
2020 2020-06-08 9.32 6,8705
2021 2021-05-24 7.80 4,7305
?
  Peak Gage-Height Qualification Codes.
?
  Peak Streamflow Qualification Codes.